createdAt,value
2018-07-12T00:00:53.372Z,16.70
2018-07-12T00:03:21.422Z,16.70
2018-07-12T00:05:49.470Z,16.60
2018-07-12T00:08:17.755Z,16.70
2018-07-12T00:10:45.757Z,16.60
2018-07-12T00:13:13.696Z,16.50
2018-07-12T00:15:41.672Z,16.40
2018-07-12T00:18:09.631Z,16.40
2018-07-12T00:20:37.584Z,16.40
2018-07-12T00:25:33.831Z,16.50
2018-07-12T00:28:01.768Z,16.50
2018-07-12T00:30:29.743Z,16.50
2018-07-12T00:32:57.943Z,16.50
2018-07-12T00:35:26.047Z,16.50
2018-07-12T00:37:54.482Z,16.50
2018-07-12T00:40:22.429Z,16.50
2018-07-12T00:42:50.640Z,16.50
2018-07-12T00:47:46.743Z,16.60
2018-07-12T00:50:14.668Z,16.70
2018-07-12T00:52:42.619Z,16.70
2018-07-12T00:55:10.572Z,16.60
2018-07-12T00:57:38.549Z,16.60
2018-07-12T01:00:06.493Z,16.50
2018-07-12T01:02:34.596Z,16.40
2018-07-12T01:05:02.529Z,16.40
2018-07-12T01:07:30.482Z,16.30
2018-07-12T01:09:58.517Z,16.30
2018-07-12T01:12:26.683Z,16.40
2018-07-12T01:14:54.834Z,16.40
2018-07-12T01:17:22.797Z,16.30
2018-07-12T01:19:50.739Z,16.30
2018-07-12T01:22:18.707Z,16.40
2018-07-12T01:24:46.662Z,16.40
2018-07-12T01:27:14.612Z,16.40
2018-07-12T01:29:42.574Z,16.40
2018-07-12T01:32:10.519Z,16.40
2018-07-12T01:34:38.654Z,16.40
2018-07-12T01:37:06.649Z,16.50
2018-07-12T01:39:34.611Z,16.50
2018-07-12T01:42:02.574Z,16.50
2018-07-12T01:44:30.574Z,16.40
2018-07-12T01:49:26.635Z,16.40
2018-07-12T01:51:54.729Z,16.30
2018-07-12T01:54:22.689Z,16.30
2018-07-12T01:56:51.332Z,16.30
2018-07-12T01:59:19.315Z,16.20
2018-07-12T02:01:47.254Z,16.20
2018-07-12T02:04:15.220Z,16.20
2018-07-12T02:06:43.237Z,16.10
2018-07-12T02:09:11.339Z,16.10
2018-07-12T02:11:39.312Z,16.00
2018-07-12T02:14:07.273Z,16.00
2018-07-12T02:16:35.386Z,15.90
2018-07-12T02:19:03.601Z,15.80
2018-07-12T02:21:31.772Z,15.70
2018-07-12T02:23:59.720Z,15.70
2018-07-12T02:26:27.887Z,15.70
2018-07-12T02:28:55.848Z,15.60
2018-07-12T02:31:23.793Z,15.70
2018-07-12T02:33:51.808Z,15.70
2018-07-12T02:36:19.717Z,15.70
2018-07-12T02:38:47.913Z,15.70
2018-07-12T02:41:15.856Z,15.70
2018-07-12T02:43:43.783Z,15.60
2018-07-12T02:46:11.754Z,15.50
2018-07-12T02:48:39.706Z,15.50
2018-07-12T02:51:07.712Z,15.50
2018-07-12T02:56:03.968Z,15.50
2018-07-12T02:58:31.925Z,15.60
2018-07-12T03:01:00.504Z,15.50
2018-07-12T03:03:28.462Z,15.50
2018-07-12T03:05:56.505Z,15.50
2018-07-12T03:08:24.576Z,15.40
2018-07-12T03:10:52.727Z,15.40
2018-07-12T03:13:21.193Z,15.40
2018-07-12T03:15:49.385Z,15.40
2018-07-12T03:18:17.354Z,15.40
2018-07-12T03:20:45.430Z,15.40
2018-07-12T03:23:13.375Z,15.40
2018-07-12T03:25:41.822Z,15.30
2018-07-12T03:28:09.749Z,15.30
2018-07-12T03:30:37.822Z,15.30
2018-07-12T03:33:05.756Z,15.30
2018-07-12T03:35:33.707Z,15.30
2018-07-12T03:38:01.642Z,15.30
2018-07-12T03:40:29.624Z,15.30
2018-07-12T03:42:57.573Z,15.20
2018-07-12T03:45:25.542Z,15.30
2018-07-12T03:47:53.530Z,15.20
2018-07-12T03:50:21.485Z,15.30
2018-07-12T03:52:49.439Z,15.30
2018-07-12T03:55:17.376Z,15.30
2018-07-12T04:00:13.470Z,15.40
2018-07-12T04:02:41.693Z,15.40
2018-07-12T04:05:09.652Z,15.50
2018-07-12T04:07:37.742Z,15.60
2018-07-12T04:10:05.891Z,15.60
2018-07-12T04:12:34.170Z,15.60
2018-07-12T04:15:02.284Z,15.70
2018-07-12T04:17:32.337Z,15.70
2018-07-12T04:20:02.376Z,15.80
2018-07-12T04:25:11.571Z,15.90
2018-07-12T04:27:39.514Z,16.00
2018-07-12T04:30:07.471Z,16.00
2018-07-12T04:32:35.442Z,16.00
2018-07-12T04:35:05.234Z,16.10
2018-07-12T04:37:33.272Z,16.20
2018-07-12T04:40:01.411Z,16.30
2018-07-12T04:42:29.381Z,16.30
2018-07-12T04:44:57.320Z,16.40
2018-07-12T04:47:25.404Z,16.60
2018-07-12T04:49:53.347Z,16.60
2018-07-12T04:52:21.290Z,16.60
2018-07-12T04:54:49.249Z,16.70
2018-07-12T04:57:17.299Z,16.80
2018-07-12T04:59:45.558Z,16.80
2018-07-12T05:02:13.701Z,16.90
2018-07-12T05:04:41.661Z,17.00
2018-07-12T05:07:09.642Z,17.10
2018-07-12T05:09:37.728Z,17.20
2018-07-12T05:12:05.680Z,17.30
2018-07-12T05:14:33.730Z,17.40
2018-07-12T05:17:03.436Z,17.40
2018-07-12T05:19:31.416Z,17.50
2018-07-12T05:21:59.373Z,17.60
2018-07-12T05:24:27.306Z,17.60
2018-07-12T05:26:55.248Z,17.60
2018-07-12T05:29:23.196Z,17.60
2018-07-12T05:31:51.136Z,17.70
2018-07-12T05:34:19.084Z,17.90
2018-07-12T05:36:56.625Z,18.00
2018-07-12T05:39:25.988Z,18.10
2018-07-12T05:41:55.433Z,18.20
2018-07-12T05:44:24.643Z,18.10
2018-07-12T05:46:53.850Z,18.20
2018-07-12T05:49:23.093Z,18.20
2018-07-12T05:51:52.349Z,18.20
2018-07-12T05:54:21.483Z,18.20
2018-07-12T05:56:51.735Z,18.30
2018-07-12T05:59:20.836Z,18.50
2018-07-12T06:02:01.171Z,18.60
2018-07-12T06:04:30.383Z,18.60
2018-07-12T06:06:59.734Z,18.70
2018-07-12T06:09:28.936Z,18.80
2018-07-12T06:11:58.198Z,18.80
2018-07-12T06:14:27.487Z,18.90
2018-07-12T06:16:56.595Z,19.10
2018-07-12T06:19:25.800Z,19.30
2018-07-12T06:21:55.013Z,19.50
2018-07-12T06:24:24.421Z,19.60
2018-07-12T06:26:53.496Z,19.50
2018-07-12T06:29:22.650Z,19.40
2018-07-12T06:31:52.171Z,19.20
2018-07-12T06:34:21.596Z,19.00
2018-07-12T06:36:50.841Z,18.90
2018-07-12T06:41:48.820Z,19.30
2018-07-12T06:44:18.035Z,19.50
2018-07-12T06:46:47.136Z,19.70
2018-07-12T06:49:16.235Z,19.80
2018-07-12T06:51:45.294Z,20.00
2018-07-12T06:54:14.608Z,20.30
2018-07-12T06:56:43.743Z,20.70
2018-07-12T06:59:13.210Z,20.90
2018-07-12T07:01:42.855Z,20.80
2018-07-12T07:04:12.057Z,20.60
2018-07-12T07:06:41.444Z,20.20
2018-07-12T07:09:11.523Z,19.90
2018-07-12T07:11:41.034Z,19.70
2018-07-12T07:14:10.369Z,19.60
2018-07-12T07:16:39.552Z,19.60
2018-07-12T07:19:08.610Z,19.60
2018-07-12T07:21:37.781Z,19.70
2018-07-12T07:24:06.845Z,20.00
2018-07-12T07:26:36.113Z,20.20
2018-07-12T07:29:05.242Z,20.40
2018-07-12T07:31:34.524Z,20.60
2018-07-12T07:34:03.803Z,20.80
2018-07-12T07:36:33.095Z,21.10
2018-07-12T07:39:02.461Z,21.30
2018-07-12T07:41:31.670Z,21.60
2018-07-12T07:44:00.989Z,21.70
2018-07-12T07:46:30.612Z,21.80
2018-07-12T07:48:59.795Z,21.70
2018-07-12T07:51:28.959Z,21.60
2018-07-12T07:53:58.297Z,21.40
2018-07-12T07:56:27.528Z,21.20
2018-07-12T07:58:56.631Z,20.90
2018-07-12T08:01:25.916Z,20.80
2018-07-12T08:03:55.225Z,20.80
2018-07-12T08:06:24.406Z,21.00
2018-07-12T08:08:53.732Z,21.10
2018-07-12T08:11:22.899Z,21.30
2018-07-12T08:13:52.645Z,21.30
2018-07-12T08:16:22.172Z,21.40
2018-07-12T08:18:51.267Z,21.40
2018-07-12T08:21:20.416Z,21.30
2018-07-12T08:23:49.683Z,21.20
2018-07-12T08:26:18.743Z,21.30
2018-07-12T08:28:47.935Z,21.30
2018-07-12T08:31:17.141Z,21.30
2018-07-12T08:33:46.159Z,21.40
2018-07-12T08:36:15.246Z,21.40
2018-07-12T08:38:44.474Z,21.50
2018-07-12T08:41:13.583Z,21.50
2018-07-12T08:43:43.120Z,21.50
2018-07-12T08:46:12.294Z,21.60
2018-07-12T08:48:41.546Z,21.70
2018-07-12T08:51:11.032Z,21.70
2018-07-12T08:56:11.945Z,22.00
2018-07-12T08:58:41.239Z,22.10
2018-07-12T09:01:10.445Z,22.10
2018-07-12T09:03:39.744Z,22.10
2018-07-12T09:06:08.816Z,22.10
2018-07-12T09:08:38.655Z,22.20
2018-07-12T09:11:07.750Z,22.20
2018-07-12T09:13:37.107Z,22.10
2018-07-12T09:16:06.424Z,22.20
2018-07-12T09:18:35.726Z,22.30
2018-07-12T09:21:04.922Z,22.30
2018-07-12T09:23:34.273Z,22.50
2018-07-12T09:26:03.362Z,22.70
2018-07-12T09:28:32.443Z,22.80
2018-07-12T09:31:01.536Z,22.90
2018-07-12T09:33:30.737Z,23.00
2018-07-12T09:35:59.977Z,23.00
2018-07-12T09:38:49.166Z,23.00
2018-07-12T09:41:19.200Z,23.00
2018-07-12T09:43:52.932Z,23.10
2018-07-12T09:46:22.215Z,23.20
2018-07-12T09:48:52.922Z,23.30
2018-07-12T09:51:22.176Z,23.40
2018-07-12T09:53:51.551Z,23.50
2018-07-12T09:56:20.752Z,23.50
2018-07-12T09:58:49.770Z,23.60
2018-07-12T10:01:25.591Z,23.70
2018-07-12T10:03:54.900Z,23.80
2018-07-12T10:06:25.880Z,23.80
2018-07-12T10:08:56.842Z,24.00
2018-07-12T10:11:31.282Z,24.10
2018-07-12T10:14:05.849Z,24.30
2018-07-12T10:16:40.376Z,24.40
2018-07-12T10:21:38.294Z,24.60
2018-07-12T10:24:07.724Z,24.60
2018-07-12T10:26:36.973Z,24.50
2018-07-12T10:29:06.058Z,24.60
2018-07-12T10:31:36.323Z,24.70
2018-07-12T10:34:05.414Z,24.70
2018-07-12T10:36:34.563Z,24.70
2018-07-12T10:39:04.395Z,24.80
2018-07-12T10:41:33.662Z,25.00
2018-07-12T10:44:03.604Z,25.00
2018-07-12T10:46:33.427Z,25.00
2018-07-12T10:49:03.087Z,25.20
2018-07-12T10:51:32.204Z,25.20
2018-07-12T10:54:01.339Z,25.30
2018-07-12T10:56:30.539Z,25.30
2018-07-12T10:59:00.476Z,25.40
2018-07-12T11:01:29.826Z,25.60
2018-07-12T11:03:59.029Z,25.70
2018-07-12T11:06:30.249Z,26.00
2018-07-12T11:08:59.788Z,26.30
2018-07-12T11:11:29.218Z,26.40
2018-07-12T11:13:59.345Z,26.60
2018-07-12T11:16:28.444Z,26.40
2018-07-12T11:18:57.632Z,26.60
2018-07-12T11:21:27.091Z,27.10
2018-07-12T11:23:56.268Z,27.30
2018-07-12T11:26:25.393Z,27.40
2018-07-12T11:28:54.656Z,27.30
2018-07-12T11:31:23.828Z,27.40
2018-07-12T11:33:52.935Z,27.50
2018-07-12T11:36:22.267Z,27.40
2018-07-12T11:38:51.431Z,27.40
2018-07-12T11:41:21.099Z,27.50
2018-07-12T11:46:19.160Z,28.20
2018-07-12T11:48:48.386Z,28.10
2018-07-12T11:53:46.669Z,28.00
2018-07-12T11:56:15.885Z,27.90
2018-07-12T11:58:45.088Z,27.80
2018-07-12T12:03:43.031Z,28.10
2018-07-12T12:06:12.222Z,28.30
2018-07-12T12:08:42.080Z,28.20
2018-07-12T12:11:11.244Z,27.80
2018-07-12T12:13:40.521Z,27.70
2018-07-12T12:16:09.876Z,27.50
2018-07-12T12:18:40.187Z,27.40
2018-07-12T12:21:09.545Z,27.50
2018-07-12T12:23:39.051Z,27.90
2018-07-12T12:26:08.473Z,28.40
2018-07-12T12:28:37.911Z,28.90
2018-07-12T12:31:07.063Z,28.80
2018-07-12T12:33:37.672Z,28.30
2018-07-12T12:36:06.674Z,28.00
2018-07-12T12:38:35.864Z,27.90
2018-07-12T12:41:04.968Z,27.90
2018-07-12T12:43:34.393Z,27.90
2018-07-12T12:48:33.674Z,28.10
2018-07-12T12:51:02.784Z,28.60
2018-07-12T12:53:32.073Z,28.70
2018-07-12T12:56:01.183Z,28.60
2018-07-12T12:58:30.517Z,28.40
2018-07-12T13:00:59.604Z,28.10
2018-07-12T13:03:28.725Z,27.90
2018-07-12T13:05:57.796Z,27.90
2018-07-12T13:08:27.117Z,27.90
2018-07-12T13:10:56.582Z,28.20
2018-07-12T13:13:25.833Z,28.40
2018-07-12T13:15:54.955Z,28.60
2018-07-12T13:18:24.381Z,28.60
2018-07-12T13:20:53.602Z,28.70
2018-07-12T13:23:22.772Z,28.60
2018-07-12T13:25:51.980Z,28.30
2018-07-12T13:28:21.201Z,27.80
2018-07-12T13:30:50.601Z,27.70
2018-07-12T13:33:20.001Z,27.90
2018-07-12T13:35:49.377Z,28.00
2018-07-12T13:38:18.502Z,28.00
2018-07-12T13:40:47.602Z,28.10
2018-07-12T13:43:16.821Z,28.00
2018-07-12T13:45:46.318Z,28.00
2018-07-12T13:48:15.605Z,27.90
2018-07-12T13:50:46.168Z,28.00
2018-07-12T13:53:15.392Z,28.10
2018-07-12T13:55:44.616Z,28.20
2018-07-12T13:58:13.867Z,28.50
2018-07-12T14:00:43.091Z,28.90
2018-07-12T14:03:12.361Z,29.30
2018-07-12T14:05:41.475Z,29.50
2018-07-12T14:08:10.710Z,29.30
2018-07-12T14:10:40.653Z,29.10
2018-07-12T14:13:09.854Z,28.90
2018-07-12T14:15:38.964Z,28.70
2018-07-12T14:18:08.156Z,28.50
2018-07-12T14:20:37.499Z,28.60
2018-07-12T14:23:06.632Z,28.90
2018-07-12T14:25:35.836Z,29.20
2018-07-12T14:28:05.158Z,29.40
2018-07-12T14:30:34.243Z,29.40
2018-07-12T14:33:04.386Z,29.40
2018-07-12T14:35:34.122Z,29.20
2018-07-12T14:38:03.388Z,29.10
2018-07-12T14:40:32.641Z,29.20
2018-07-12T14:43:01.757Z,29.40
2018-07-12T14:45:31.164Z,29.40
2018-07-12T14:48:00.268Z,29.60
2018-07-12T14:50:30.415Z,29.60
2018-07-12T14:53:00.185Z,29.10
2018-07-12T14:55:29.488Z,28.70
2018-07-12T14:57:58.849Z,28.50
2018-07-12T15:00:28.121Z,28.20
2018-07-12T15:02:57.347Z,28.10
2018-07-12T15:05:26.787Z,28.00
2018-07-12T15:10:24.777Z,28.10
2018-07-12T15:12:54.007Z,28.10
2018-07-12T15:15:23.188Z,28.00
2018-07-12T15:17:52.308Z,28.20
2018-07-12T15:20:21.422Z,28.50
2018-07-12T15:22:50.561Z,29.20
2018-07-12T15:25:19.848Z,29.90
2018-07-12T15:27:49.146Z,30.10
2018-07-12T15:30:18.477Z,29.90
2018-07-12T15:32:47.687Z,30.10
2018-07-12T15:35:17.620Z,30.60
2018-07-12T15:37:47.648Z,30.90
2018-07-12T15:40:17.018Z,30.70
2018-07-12T15:45:15.108Z,31.10
2018-07-12T15:47:44.572Z,31.20
2018-07-12T15:50:13.830Z,31.60
2018-07-12T15:52:43.252Z,32.00
2018-07-12T15:55:12.522Z,32.00
2018-07-12T15:57:41.629Z,32.00
2018-07-12T16:00:11.210Z,32.30
2018-07-12T16:02:41.138Z,31.90
2018-07-12T16:05:10.318Z,31.60
2018-07-12T16:07:39.605Z,31.40
2018-07-12T16:10:08.769Z,31.50
2018-07-12T16:12:38.066Z,31.70
2018-07-12T16:15:07.308Z,31.60
2018-07-12T16:17:36.709Z,31.10
2018-07-12T16:20:06.505Z,31.00
2018-07-12T16:22:35.691Z,31.10
2018-07-12T16:25:04.976Z,31.40
2018-07-12T16:27:34.332Z,31.40
2018-07-12T16:30:03.645Z,31.30
2018-07-12T16:32:32.759Z,31.50
2018-07-12T16:35:02.024Z,31.90
2018-07-12T16:37:31.435Z,32.40
2018-07-12T16:40:00.634Z,32.70
2018-07-12T16:42:29.830Z,32.40
2018-07-12T16:45:01.959Z,32.10
2018-07-12T16:47:31.108Z,31.70
2018-07-12T16:50:00.269Z,31.70
2018-07-12T16:52:29.475Z,31.90
2018-07-12T16:54:58.790Z,31.90
2018-07-12T16:57:28.812Z,31.90
2018-07-12T16:59:58.105Z,31.50
2018-07-12T17:02:27.302Z,31.50
2018-07-12T17:04:56.807Z,31.20
2018-07-12T17:09:54.760Z,30.80
2018-07-12T17:12:23.868Z,31.00
2018-07-12T17:14:53.229Z,30.90
2018-07-12T17:17:22.361Z,31.20
2018-07-12T17:19:51.536Z,31.40
2018-07-12T17:22:20.659Z,31.60
2018-07-12T17:24:49.767Z,31.70
2018-07-12T17:27:18.983Z,31.60
2018-07-12T17:29:48.317Z,31.60
2018-07-12T17:32:17.593Z,31.60
2018-07-12T17:34:46.890Z,31.50
2018-07-12T17:37:16.533Z,31.30
2018-07-12T17:39:46.090Z,31.20
2018-07-12T17:44:44.065Z,31.00
2018-07-12T17:47:13.416Z,30.80
2018-07-12T17:52:11.375Z,30.70
2018-07-12T17:54:40.680Z,30.40
2018-07-12T17:57:10.045Z,30.00
2018-07-12T17:59:39.241Z,29.70
2018-07-12T18:02:08.376Z,29.70
2018-07-12T18:04:37.674Z,29.70
2018-07-12T18:07:07.044Z,29.40
2018-07-12T18:09:36.280Z,28.80
2018-07-12T18:12:06.223Z,28.10
2018-07-12T18:14:35.571Z,27.30
2018-07-12T18:17:04.729Z,26.80
2018-07-12T18:19:33.890Z,26.40
2018-07-12T18:22:03.151Z,26.00
2018-07-12T18:24:32.355Z,25.60
2018-07-12T18:27:02.234Z,25.40
2018-07-12T18:29:31.511Z,25.20
2018-07-12T18:32:00.592Z,25.00
2018-07-12T18:34:29.836Z,24.90
2018-07-12T18:36:59.547Z,24.80
2018-07-12T18:39:28.661Z,24.70
2018-07-12T18:41:57.819Z,24.70
2018-07-12T18:44:27.103Z,24.60
2018-07-12T18:46:56.508Z,24.40
2018-07-12T18:49:25.739Z,24.30
2018-07-12T18:51:55.270Z,24.30
2018-07-12T18:54:24.777Z,24.20
2018-07-12T18:56:53.831Z,24.10
2018-07-12T18:59:23.124Z,24.00
2018-07-12T19:01:52.330Z,23.90
2018-07-12T19:04:21.546Z,23.80
2018-07-12T19:06:51.203Z,23.70
2018-07-12T19:09:20.354Z,23.60
2018-07-12T19:11:49.609Z,23.60
2018-07-12T19:14:18.749Z,23.40
2018-07-12T19:16:48.034Z,23.40
2018-07-12T19:19:17.218Z,23.30
2018-07-12T19:21:46.337Z,23.20
2018-07-12T19:24:15.462Z,23.10
2018-07-12T19:26:44.664Z,23.00
2018-07-12T19:29:14.074Z,22.90
2018-07-12T19:31:43.484Z,22.80
2018-07-12T19:34:12.562Z,22.70
2018-07-12T19:36:41.971Z,22.60
2018-07-12T19:39:11.058Z,22.60
2018-07-12T19:41:40.272Z,22.50
2018-07-12T19:44:09.874Z,22.30
2018-07-12T19:46:39.157Z,22.20
2018-07-12T19:49:08.323Z,22.10
2018-07-12T19:51:38.108Z,22.00
2018-07-12T19:54:07.367Z,22.00
2018-07-12T19:56:36.677Z,21.90
2018-07-12T19:59:06.105Z,21.80
2018-07-12T20:01:35.356Z,21.70
2018-07-12T20:04:05.084Z,21.60
2018-07-12T20:06:34.527Z,21.50
2018-07-12T20:09:03.920Z,21.40
2018-07-12T20:11:33.183Z,21.40
2018-07-12T20:14:04.726Z,21.30
2018-07-12T20:16:36.186Z,21.20
2018-07-12T20:19:06.006Z,21.10
2018-07-12T20:21:35.343Z,21.00
2018-07-12T20:24:04.591Z,21.00
2018-07-12T20:26:33.758Z,20.90
2018-07-12T20:29:03.281Z,20.80
2018-07-12T20:31:33.479Z,20.70
2018-07-12T20:34:03.053Z,20.60
2018-07-12T20:36:32.384Z,20.50
2018-07-12T20:39:01.915Z,20.50
2018-07-12T20:41:31.316Z,20.40
2018-07-12T20:44:00.577Z,20.30
2018-07-12T20:46:30.168Z,20.30
2018-07-12T20:48:59.562Z,20.20
2018-07-12T20:51:29.017Z,20.10
2018-07-12T20:53:58.764Z,20.00
2018-07-12T20:56:27.995Z,20.00
2018-07-12T20:58:57.188Z,19.90
2018-07-12T21:01:26.846Z,19.90
2018-07-12T21:03:55.989Z,19.80
2018-07-12T21:06:25.357Z,19.70
2018-07-12T21:08:54.661Z,19.60
2018-07-12T21:11:23.758Z,19.50
2018-07-12T21:13:52.909Z,19.40
2018-07-12T21:16:22.307Z,19.40
2018-07-12T21:18:51.759Z,19.40
2018-07-12T21:21:21.013Z,19.30
2018-07-12T21:23:50.089Z,19.20
2018-07-12T21:26:19.356Z,19.20
2018-07-12T21:28:48.619Z,19.10
2018-07-12T21:31:17.762Z,19.10
2018-07-12T21:33:47.036Z,19.00
2018-07-12T21:36:16.153Z,19.00
2018-07-12T21:38:45.359Z,18.90
2018-07-12T21:41:14.461Z,18.80
2018-07-12T21:43:43.672Z,18.80
2018-07-12T21:46:12.795Z,18.70
2018-07-12T21:48:42.053Z,18.70
2018-07-12T21:51:11.382Z,18.70
2018-07-12T21:53:40.520Z,18.60
2018-07-12T21:56:09.573Z,18.50
2018-07-12T21:58:38.734Z,18.50
2018-07-12T22:01:07.936Z,18.40
2018-07-12T22:03:37.188Z,18.30
2018-07-12T22:06:06.324Z,18.20
2018-07-12T22:08:35.577Z,18.10
2018-07-12T22:11:05.803Z,18.10
2018-07-12T22:13:36.542Z,18.10
2018-07-12T22:16:05.804Z,18.00
2018-07-12T22:18:34.918Z,17.90
2018-07-12T22:21:05.365Z,17.90
2018-07-12T22:23:34.403Z,17.80
2018-07-12T22:26:03.747Z,17.70
2018-07-12T22:28:32.911Z,17.70
2018-07-12T22:31:02.272Z,17.70
2018-07-12T22:33:31.434Z,17.70
2018-07-12T22:36:00.532Z,17.70
2018-07-12T22:38:29.736Z,17.60
2018-07-12T22:40:59.636Z,17.50
2018-07-12T22:43:29.733Z,17.50
2018-07-12T22:45:59.913Z,17.40
2018-07-12T22:48:29.416Z,17.40
2018-07-12T22:50:58.327Z,17.30
2018-07-12T22:53:27.962Z,17.30
2018-07-12T22:55:57.274Z,17.20
2018-07-12T22:58:26.412Z,17.20
2018-07-12T23:00:55.689Z,17.00
2018-07-12T23:03:28.038Z,17.00
2018-07-12T23:05:57.337Z,17.00
2018-07-12T23:08:26.521Z,16.90
2018-07-12T23:10:55.722Z,16.80
2018-07-12T23:13:24.762Z,16.80
2018-07-12T23:15:53.957Z,16.70
2018-07-12T23:18:23.329Z,16.60
2018-07-12T23:23:21.276Z,16.50
2018-07-12T23:25:50.848Z,16.50
2018-07-12T23:28:20.325Z,16.50
2018-07-12T23:30:49.528Z,16.50
2018-07-12T23:33:18.838Z,16.50
2018-07-12T23:35:48.141Z,16.40
2018-07-12T23:38:17.350Z,16.40
2018-07-12T23:40:46.597Z,16.30
2018-07-12T23:43:16.069Z,16.30
2018-07-12T23:45:45.209Z,16.30
2018-07-12T23:48:14.812Z,16.30
2018-07-12T23:50:44.023Z,16.30
2018-07-12T23:53:13.949Z,16.20
2018-07-12T23:58:11.880Z,16.10
